الصفحة الرئيسية
METAR-TAF:

METAR-TAF

مطار :

سنغافورة, سنغافورة

دائرة عرض: 01-22N, خط طول: 103-55E, ارتفاع: 18 متر

مراقبة الطقس الحالي

تاريخ ووقت الإصدار 59 دقيقة قبل الساعة 06:00UTC
ريح 7 عقدة من الشرق/الشمال الشرقي
درجة الحرارة 35°درجة مئوية
الرطوبة 50%
ضغط 1009 hPa
الرؤية 10 كم أو أكثر
غيوم قليلة على ارتفاع 2200 قدم
غيوم مفككة على ارتفاع 30000 قدم

METAR: WSAP 310600Z 06007KT 9999 FEW022 BKN300 35/23 Q1009

زمن: 14:59 (06:59 UTC)

توقعات

تاريخ ووقت الإصدار 1ساعة و 59 دقيقة قبل الساعة 05:00UTC
التوقعات صالحة من31 الساعة 06 UTC إلى 01 الساعة 12 UTC
ريح 7 عقدة من الشمال الشرقي
الرؤية 10 كم أو أكثر
غيوم قليلة على ارتفاع 1500 قدم
غيوم متفرقة على ارتفاع 2000 قدم

TAF: WSAP 310500Z 3106/0112 04007KT 9999 FEW015 SCT020

أرصاد الطقس والتوقعات من أكثر من 4000 مطار (تقارير الطقس للمطار METAR والتنبؤ بالطقس بالمطارTAF).

المحطات المتاحة هي النقط الصفراء والحمراء على الخريطة.

حرك المؤشر فوق النقطة لمعرفة اسم المحطة.

ثم انقر لمعرفة أرصاد وتوقعات الطقس.

لتغيير الخارطة: اضغط على الأزرار الخضراء مع رمز الصليب الأسود للتكبير. على الزر الأخضر مع شرطة للتصغير، أو على الأسهم الخضراء للخرائط المجاورة.


METAR-TAF: